Time;durP1;ratioP1;P1;durP2;ratioP2;P2;SDS_P1;SDS_P2;PMS_P1;PMS_P2;Temp;Humidity;BMP_temperature;BMP_pressure;BME280_temperature;BME280_humidity;BME280_pressure;Samples;Min_cycle;Max_cycle;Signal;HPM_P1;HPM_P2
2021/12/15 00:01:41;;;;;;;57.10;27.57;;;;;;;;;;4932648;29;20182;-73
2021/12/15 00:04:08;;;;;;;50.10;26.30;;;;;;;;;;4933915;29;20201;-73
2021/12/15 00:06:35;;;;;;;46.50;23.97;;;;;;;;;;4933030;29;20229;-74
2021/12/15 00:09:04;;;;;;;39.10;23.97;;;;;;;;;;4935943;29;20658;-74
2021/12/15 00:11:36;;;;;;;38.17;22.30;;;;;;;;;;4931451;29;20547;-73
2021/12/15 00:14:04;;;;;;;39.70;21.60;;;;;;;;;;4935329;29;20685;-74
2021/12/15 00:16:31;;;;;;;39.73;22.20;;;;;;;;;;4933960;29;20198;-73
2021/12/15 00:18:57;;;;;;;54.33;25.27;;;;;;;;;;4949184;29;20180;-75
2021/12/15 00:21:23;;;;;;;54.97;27.53;;;;;;;;;;4933519;29;20677;-74
2021/12/15 00:23:49;;;;;;;47.33;25.33;;;;;;;;;;4934139;29;20244;-74
2021/12/15 00:26:16;;;;;;;49.20;25.20;;;;;;;;;;4931806;29;20189;-74
2021/12/15 00:28:44;;;;;;;51.33;25.60;;;;;;;;;;4919988;29;20711;-74
2021/12/15 00:31:10;;;;;;;47.93;24.50;;;;;;;;;;4934902;29;20225;-74
2021/12/15 00:33:38;;;;;;;52.90;26.13;;;;;;;;;;4934466;29;20206;-74
2021/12/15 00:36:06;;;;;;;44.57;23.50;;;;;;;;;;4925325;29;20637;-74
2021/12/15 00:38:32;;;;;;;55.43;25.87;;;;;;;;;;4935883;29;20222;-74
2021/12/15 00:40:59;;;;;;;53.23;25.87;;;;;;;;;;4934365;29;20214;-74
2021/12/15 00:43:25;;;;;;;44.90;22.90;;;;;;;;;;4930168;29;20201;-73
2021/12/15 00:45:51;;;;;;;51.43;25.63;;;;;;;;;;4948760;29;20200;-73
2021/12/15 00:48:18;;;;;;;63.37;25.97;;;;;;;;;;4931070;29;20614;-74
2021/12/15 00:50:45;;;;;;;43.43;22.47;;;;;;;;;;4934280;29;20186;-74
2021/12/15 00:53:11;;;;;;;48.57;24.40;;;;;;;;;;4930991;29;20367;-74
2021/12/15 00:55:38;;;;;;;41.80;22.07;;;;;;;;;;4897987;29;20678;-73
2021/12/15 00:58:05;;;;;;;36.53;20.23;;;;;;;;;;4932653;29;20312;-73
2021/12/15 01:00:34;;;;;;;45.73;22.57;;;;;;;;;;4931962;29;20269;-74
2021/12/15 01:03:00;;;;;;;43.13;22.50;;;;;;;;;;4930731;29;20214;-74
2021/12/15 01:05:30;;;;;;;36.63;21.37;;;;;;;;;;4930087;29;20213;-74
2021/12/15 01:07:56;;;;;;;30.83;18.53;;;;;;;;;;4930373;29;20189;-73
2021/12/15 01:10:29;;;;;;;33.63;20.23;;;;;;;;;;4929122;29;20269;-73
2021/12/15 01:21:01;;;;;;;29.83;17.17;;;;;;;;;;4947037;29;20609;-74
2021/12/15 01:23:29;;;;;;;27.70;16.70;;;;;;;;;;4930152;29;20209;-74
2021/12/15 01:26:01;;;;;;;25.53;15.30;;;;;;;;;;4931123;29;20197;-73
2021/12/15 01:28:27;;;;;;;28.60;16.13;;;;;;;;;;4929686;29;20190;-74
2021/12/15 01:30:55;;;;;;;27.27;15.87;;;;;;;;;;4930977;29;20205;-74
2021/12/15 01:33:21;;;;;;;25.77;15.33;;;;;;;;;;4929352;29;20257;-74
2021/12/15 01:35:48;;;;;;;23.90;15.10;;;;;;;;;;4929525;29;20653;-73
2021/12/15 01:38:16;;;;;;;22.17;14.03;;;;;;;;;;4929071;29;20213;-74
2021/12/15 01:40:44;;;;;;;25.57;14.63;;;;;;;;;;4929169;29;20186;-74
2021/12/15 01:43:17;;;;;;;21.20;12.93;;;;;;;;;;4926825;29;20686;-74
2021/12/15 01:48:31;;;;;;;21.83;14.37;;;;;;;;;;4932493;29;20245;-74
2021/12/15 01:50:57;;;;;;;23.23;14.07;;;;;;;;;;4949322;29;20532;-74
2021/12/15 01:53:23;;;;;;;21.40;13.73;;;;;;;;;;4932020;29;20201;-73
2021/12/15 01:55:49;;;;;;;23.13;14.30;;;;;;;;;;4931849;29;20221;-74
2021/12/15 01:58:17;;;;;;;23.03;14.43;;;;;;;;;;4932019;29;20304;-74
2021/12/15 02:00:47;;;;;;;24.23;14.10;;;;;;;;;;4933640;29;20217;-74
2021/12/15 02:03:13;;;;;;;25.47;14.73;;;;;;;;;;4933506;29;20214;-73
2021/12/15 02:05:40;;;;;;;30.73;16.63;;;;;;;;;;4948111;29;20186;-74
2021/12/15 02:08:07;;;;;;;30.13;16.13;;;;;;;;;;4933410;29;20186;-74
2021/12/15 02:10:38;;;;;;;47.20;18.17;;;;;;;;;;4932047;29;20197;-74
2021/12/15 02:13:05;;;;;;;34.67;16.90;;;;;;;;;;4915452;29;20621;-74
2021/12/15 02:15:33;;;;;;;55.27;16.33;;;;;;;;;;4932355;29;20238;-73
2021/12/15 02:18:00;;;;;;;63.97;16.23;;;;;;;;;;4930551;29;20677;-73
2021/12/15 02:20:38;;;;;;;85.87;17.97;;;;;;;;;;4930437;29;20185;-74
2021/12/15 02:23:07;;;;;;;41.77;14.37;;;;;;;;;;4931167;29;20296;-74
2021/12/15 02:25:34;;;;;;;80.37;16.83;;;;;;;;;;4933378;29;20712;-74
2021/12/15 02:28:02;;;;;;;53.67;15.43;;;;;;;;;;4933709;29;20682;-73
2021/12/15 02:30:48;;;;;;;41.47;16.20;;;;;;;;;;4932836;29;20246;-73
2021/12/15 02:38:34;;;;;;;25.10;13.20;;;;;;;;;;4913410;29;20210;-74
2021/12/15 02:41:08;;;;;;;28.17;14.97;;;;;;;;;;4918030;29;20257;-74
2021/12/15 02:43:35;;;;;;;30.47;15.17;;;;;;;;;;4932436;29;20232;-73
2021/12/15 02:46:01;;;;;;;24.83;13.60;;;;;;;;;;4931714;29;20613;-73
2021/12/15 02:48:27;;;;;;;23.93;13.67;;;;;;;;;;4932347;29;20196;-74
2021/12/15 02:50:54;;;;;;;27.47;15.77;;;;;;;;;;4930150;29;20217;-73
2021/12/15 02:53:20;;;;;;;26.07;14.23;;;;;;;;;;4926086;29;20217;-73
2021/12/15 02:55:46;;;;;;;24.70;13.13;;;;;;;;;;4933575;29;20229;-73
2021/12/15 02:58:13;;;;;;;27.13;13.37;;;;;;;;;;4920130;29;20628;-73
2021/12/15 03:00:59;;;;;;;25.43;14.23;;;;;;;;;;4926147;29;20189;-74
2021/12/15 03:06:03;;;;;;;21.00;12.00;;;;;;;;;;4928378;29;20518;-73
2021/12/15 03:16:46;;;;;;;18.40;11.33;;;;;;;;;;4932646;29;20201;-73
2021/12/15 03:19:12;;;;;;;19.17;11.43;;;;;;;;;;4929772;29;20187;-74
2021/12/15 03:21:38;;;;;;;18.97;10.60;;;;;;;;;;4943616;29;20182;-74
2021/12/15 03:24:08;;;;;;;15.70;10.00;;;;;;;;;;4923697;29;20564;-74
2021/12/15 03:26:40;;;;;;;15.33;10.83;;;;;;;;;;4944221;29;20210;-73
2021/12/15 03:34:45;;;;;;;14.37;9.93;;;;;;;;;;4930361;29;20189;-73
2021/12/15 03:37:28;;;;;;;13.77;9.93;;;;;;;;;;4929650;29;20724;-73
2021/12/15 03:39:57;;;;;;;14.70;8.83;;;;;;;;;;4948609;28;20580;-73
2021/12/15 03:42:28;;;;;;;12.00;8.17;;;;;;;;;;4930856;29;20300;-73
2021/12/15 03:44:56;;;;;;;10.40;8.07;;;;;;;;;;4929243;29;20642;-73
2021/12/15 03:47:24;;;;;;;11.70;8.77;;;;;;;;;;4928623;29;20221;-73
2021/12/15 03:49:51;;;;;;;10.50;7.80;;;;;;;;;;4927810;29;20318;-73
2021/12/15 03:52:17;;;;;;;11.27;7.97;;;;;;;;;;4927633;29;20713;-74
2021/12/15 03:54:44;;;;;;;9.57;7.63;;;;;;;;;;4927175;29;20181;-74
2021/12/15 03:57:10;;;;;;;12.23;8.80;;;;;;;;;;4928098;29;20234;-74
2021/12/15 03:59:41;;;;;;;11.77;8.30;;;;;;;;;;4928144;29;20299;-73
2021/12/15 04:02:08;;;;;;;10.37;7.77;;;;;;;;;;4926641;29;20205;-74
2021/12/15 04:04:34;;;;;;;9.63;7.57;;;;;;;;;;4926377;29;20325;-73
2021/12/15 04:07:01;;;;;;;11.90;8.50;;;;;;;;;;4928917;29;20186;-73
2021/12/15 04:09:27;;;;;;;10.87;7.77;;;;;;;;;;4930184;29;20190;-73
2021/12/15 04:11:54;;;;;;;9.40;7.67;;;;;;;;;;4931748;29;21060;-73
2021/12/15 04:14:23;;;;;;;10.87;7.13;;;;;;;;;;4931989;29;20194;-74
2021/12/15 04:17:06;;;;;;;8.47;6.33;;;;;;;;;;4932984;29;20712;-74
2021/12/15 04:19:34;;;;;;;8.33;6.77;;;;;;;;;;4931918;29;20779;-73
2021/12/15 04:22:00;;;;;;;8.63;6.77;;;;;;;;;;4900744;29;20216;-73
2021/12/15 04:24:27;;;;;;;7.13;5.77;;;;;;;;;;4932188;29;20192;-73
2021/12/15 04:26:55;;;;;;;7.50;6.47;;;;;;;;;;4929364;29;20725;-73
2021/12/15 04:29:21;;;;;;;7.67;6.50;;;;;;;;;;4929964;29;20193;-73
2021/12/15 04:32:01;;;;;;;7.77;6.37;;;;;;;;;;4927813;29;20730;-74
2021/12/15 04:34:28;;;;;;;8.67;6.23;;;;;;;;;;4927015;29;20694;-74
2021/12/15 04:36:54;;;;;;;9.13;6.03;;;;;;;;;;4930156;29;20241;-73
2021/12/15 04:39:25;;;;;;;7.03;5.77;;;;;;;;;;4922773;29;20630;-74
2021/12/15 04:41:53;;;;;;;6.70;5.73;;;;;;;;;;4930691;29;20193;-73
2021/12/15 04:44:20;;;;;;;7.70;6.27;;;;;;;;;;4927519;29;20190;-74
2021/12/15 04:46:50;;;;;;;8.17;6.40;;;;;;;;;;4933677;29;20272;-73
2021/12/15 04:49:18;;;;;;;8.97;6.80;;;;;;;;;;4925647;29;20282;-73
2021/12/15 04:51:45;;;;;;;7.23;6.10;;;;;;;;;;4931198;29;20213;-74
2021/12/15 04:54:11;;;;;;;7.40;5.87;;;;;;;;;;4932446;29;20186;-74
2021/12/15 04:56:37;;;;;;;7.27;5.90;;;;;;;;;;4933610;29;20186;-73
2021/12/15 04:59:04;;;;;;;8.40;6.77;;;;;;;;;;4932001;29;20277;-73
2021/12/15 05:01:30;;;;;;;8.07;6.80;;;;;;;;;;4924708;29;20280;-74
2021/12/15 05:03:56;;;;;;;8.53;5.90;;;;;;;;;;4925708;29;20205;-74
2021/12/15 05:06:23;;;;;;;7.80;6.27;;;;;;;;;;4942414;28;20253;-74
2021/12/15 05:08:50;;;;;;;7.97;6.70;;;;;;;;;;4948201;28;20182;-73
2021/12/15 05:11:16;;;;;;;8.03;6.83;;;;;;;;;;4929634;29;20237;-74
2021/12/15 05:13:42;;;;;;;9.00;6.60;;;;;;;;;;4927781;29;20218;-73
2021/12/15 05:16:09;;;;;;;9.53;7.70;;;;;;;;;;4929412;29;20289;-73
2021/12/15 05:18:36;;;;;;;8.50;6.83;;;;;;;;;;4930924;29;20240;-74
2021/12/15 05:21:02;;;;;;;7.20;6.27;;;;;;;;;;4932717;29;20185;-73
2021/12/15 05:23:31;;;;;;;7.60;6.10;;;;;;;;;;4945695;28;20210;-73
2021/12/15 05:25:58;;;;;;;7.87;6.30;;;;;;;;;;4931652;29;20205;-73
2021/12/15 05:28:25;;;;;;;7.00;5.93;;;;;;;;;;4932628;29;20272;-73
2021/12/15 05:30:51;;;;;;;8.17;6.37;;;;;;;;;;4926928;29;20218;-73
2021/12/15 05:33:17;;;;;;;8.40;6.67;;;;;;;;;;4933464;29;20216;-74
2021/12/15 05:35:44;;;;;;;9.37;6.30;;;;;;;;;;4933126;29;20198;-74
2021/12/15 05:38:10;;;;;;;8.23;6.77;;;;;;;;;;4929140;29;20748;-73
2021/12/15 05:40:37;;;;;;;7.17;6.37;;;;;;;;;;4933185;29;20186;-75
2021/12/15 05:43:04;;;;;;;8.97;6.03;;;;;;;;;;4940998;28;20273;-74
2021/12/15 05:45:31;;;;;;;8.23;6.53;;;;;;;;;;4945503;28;20197;-73
2021/12/15 05:47:59;;;;;;;8.23;6.67;;;;;;;;;;4930945;29;20196;-75
2021/12/15 05:50:26;;;;;;;9.93;7.20;;;;;;;;;;4930095;29;20217;-74
2021/12/15 05:52:52;;;;;;;8.70;7.07;;;;;;;;;;4925042;29;20221;-74
2021/12/15 05:55:19;;;;;;;10.40;7.27;;;;;;;;;;4929503;29;20221;-75
2021/12/15 05:57:45;;;;;;;9.70;7.27;;;;;;;;;;4926125;29;20218;-74
2021/12/15 06:00:16;;;;;;;9.63;6.53;;;;;;;;;;4930199;29;20193;-75
2021/12/15 06:02:43;;;;;;;9.17;6.90;;;;;;;;;;4929279;29;20760;-74
2021/12/15 06:05:10;;;;;;;12.40;8.53;;;;;;;;;;4946515;28;20218;-75
2021/12/15 06:07:36;;;;;;;8.93;7.03;;;;;;;;;;4929514;29;20206;-75
2021/12/15 06:10:04;;;;;;;11.47;7.63;;;;;;;;;;4927043;29;20249;-74
2021/12/15 06:12:30;;;;;;;12.77;8.90;;;;;;;;;;4943427;28;20719;-74
2021/12/15 06:14:56;;;;;;;9.90;8.27;;;;;;;;;;4931279;29;20194;-75
2021/12/15 06:17:25;;;;;;;13.07;9.03;;;;;;;;;;4929766;29;20584;-74
2021/12/15 06:19:53;;;;;;;13.67;9.60;;;;;;;;;;4928598;29;20658;-75
2021/12/15 06:22:24;;;;;;;11.70;9.00;;;;;;;;;;4924009;29;20237;-74
2021/12/15 06:24:51;;;;;;;15.37;10.97;;;;;;;;;;4933631;29;20186;-74
2021/12/15 06:27:19;;;;;;;14.13;10.13;;;;;;;;;;4927806;29;20193;-75
2021/12/15 06:29:46;;;;;;;12.30;8.80;;;;;;;;;;4925747;29;20655;-75
2021/12/15 06:32:12;;;;;;;12.17;9.13;;;;;;;;;;4926815;29;20947;-75
2021/12/15 06:34:38;;;;;;;12.60;8.93;;;;;;;;;;4925846;29;20197;-75
2021/12/15 06:37:05;;;;;;;9.93;8.23;;;;;;;;;;4928650;29;20311;-74
2021/12/15 06:39:32;;;;;;;11.07;8.60;;;;;;;;;;4927711;29;20281;-75
2021/12/15 06:41:58;;;;;;;12.23;8.63;;;;;;;;;;4927897;29;20676;-75
2021/12/15 06:44:25;;;;;;;14.60;9.00;;;;;;;;;;4933418;29;20312;-74
2021/12/15 07:00:29;;;;;;;14.97;9.83;;;;;;;;;;4930042;29;20170;-76
2021/12/15 07:02:56;;;;;;;14.40;10.27;;;;;;;;;;4930790;29;20677;-76
2021/12/15 07:05:23;;;;;;;12.17;9.30;;;;;;;;;;4922762;29;20240;-75
2021/12/15 07:07:49;;;;;;;12.27;9.23;;;;;;;;;;4927549;29;20233;-75
2021/12/15 07:10:18;;;;;;;13.23;10.17;;;;;;;;;;4924683;29;20193;-76
2021/12/15 07:12:44;;;;;;;13.03;9.57;;;;;;;;;;4923586;29;20225;-75
2021/12/15 07:15:11;;;;;;;12.83;9.20;;;;;;;;;;4922798;29;20673;-76
2021/12/15 07:17:39;;;;;;;13.17;9.17;;;;;;;;;;4922716;29;20649;-76
2021/12/15 07:20:28;;;;;;;13.07;9.07;;;;;;;;;;4923257;29;20631;-76
2021/12/15 07:22:52;;;;;;;14.20;9.70;;;;;;;;;;4930599;29;20226;-79
2021/12/15 07:25:18;;;;;;;12.60;9.10;;;;;;;;;;4931669;29;20224;-79
2021/12/15 07:27:45;;;;;;;12.03;9.10;;;;;;;;;;4931783;29;20186;-79
2021/12/15 07:30:11;;;;;;;12.37;8.60;;;;;;;;;;4930932;29;20197;-78
2021/12/15 07:32:38;;;;;;;11.77;8.53;;;;;;;;;;4925974;29;20209;-81
2021/12/15 07:35:05;;;;;;;12.63;9.17;;;;;;;;;;4918379;29;20544;-79
2021/12/15 07:37:34;;;;;;;11.37;7.67;;;;;;;;;;4923550;29;20198;-78
2021/12/15 07:40:01;;;;;;;11.37;8.27;;;;;;;;;;4921228;29;20188;-80
2021/12/15 07:42:41;;;;;;;10.50;7.97;;;;;;;;;;4918623;29;20239;-78
2021/12/15 07:45:08;;;;;;;13.47;8.17;;;;;;;;;;4941539;29;20185;-80
2021/12/15 07:47:34;;;;;;;11.00;8.83;;;;;;;;;;4916810;29;20193;-78
2021/12/15 07:50:02;;;;;;;12.43;10.17;;;;;;;;;;4932333;29;20678;-79
2021/12/15 07:52:29;;;;;;;12.37;9.73;;;;;;;;;;4927830;29;20210;-77
2021/12/15 07:54:55;;;;;;;10.63;8.37;;;;;;;;;;4933724;29;20248;-77
2021/12/15 07:57:23;;;;;;;11.13;8.47;;;;;;;;;;4931309;29;20224;-77
2021/12/15 07:59:49;;;;;;;11.80;9.40;;;;;;;;;;4932877;29;20182;-78
2021/12/15 08:02:16;;;;;;;11.50;9.67;;;;;;;;;;4916781;29;20608;-77
2021/12/15 08:04:42;;;;;;;12.27;9.83;;;;;;;;;;4933091;29;20182;-78
2021/12/15 08:07:09;;;;;;;12.80;10.20;;;;;;;;;;4946618;28;20186;-77
2021/12/15 08:09:35;;;;;;;12.60;9.97;;;;;;;;;;4930385;29;20198;-79
2021/12/15 08:12:02;;;;;;;14.23;10.20;;;;;;;;;;4933197;29;20186;-78
2021/12/15 08:14:28;;;;;;;12.83;9.90;;;;;;;;;;4929005;29;20199;-76
2021/12/15 08:16:54;;;;;;;10.93;8.80;;;;;;;;;;4931563;29;20189;-77
2021/12/15 08:19:21;;;;;;;13.43;9.80;;;;;;;;;;4931800;29;20182;-76
2021/12/15 08:21:48;;;;;;;13.77;9.83;;;;;;;;;;4930756;29;20559;-77
2021/12/15 08:24:14;;;;;;;13.53;10.00;;;;;;;;;;4933976;29;20185;-76
2021/12/15 08:26:41;;;;;;;14.60;10.90;;;;;;;;;;4934630;29;20630;-76
2021/12/15 08:29:07;;;;;;;16.47;10.77;;;;;;;;;;4934049;29;20564;-76
2021/12/15 08:31:34;;;;;;;16.50;11.83;;;;;;;;;;4935499;29;20867;-76
2021/12/15 08:34:00;;;;;;;15.93;10.77;;;;;;;;;;4935146;29;20217;-79
2021/12/15 08:36:26;;;;;;;15.60;11.47;;;;;;;;;;4934899;29;20265;-77
2021/12/15 08:38:52;;;;;;;14.87;10.70;;;;;;;;;;4945411;28;20281;-77
2021/12/15 08:41:20;;;;;;;14.93;10.97;;;;;;;;;;4928357;29;20178;-77
2021/12/15 08:43:47;;;;;;;14.47;10.40;;;;;;;;;;4931982;29;20212;-76
2021/12/15 08:46:15;;;;;;;18.90;12.27;;;;;;;;;;4934273;29;20186;-77
2021/12/15 08:48:42;;;;;;;16.13;12.27;;;;;;;;;;4932075;29;20201;-76
2021/12/15 08:51:09;;;;;;;16.80;11.67;;;;;;;;;;4929012;29;20325;-77
2021/12/15 08:53:36;;;;;;;15.67;11.00;;;;;;;;;;4934828;29;20206;-77
2021/12/15 08:56:03;;;;;;;16.57;11.53;;;;;;;;;;4926914;29;20202;-77
2021/12/15 08:58:29;;;;;;;20.03;14.40;;;;;;;;;;4927004;29;20214;-77
2021/12/15 09:00:56;;;;;;;22.03;15.47;;;;;;;;;;4930967;29;20206;-76
2021/12/15 09:03:23;;;;;;;24.20;17.00;;;;;;;;;;4933843;29;20210;-76
2021/12/15 09:05:52;;;;;;;27.20;18.57;;;;;;;;;;4930255;29;20238;-76
2021/12/15 09:08:18;;;;;;;28.80;18.10;;;;;;;;;;4932252;29;20268;-77
2021/12/15 09:10:45;;;;;;;22.20;15.33;;;;;;;;;;4934923;29;20263;-77
2021/12/15 09:13:12;;;;;;;21.67;14.07;;;;;;;;;;4930058;29;20261;-79
2021/12/15 09:15:39;;;;;;;25.43;14.50;;;;;;;;;;4930342;29;20527;-76
2021/12/15 09:18:05;;;;;;;22.07;13.27;;;;;;;;;;4932796;29;20202;-76
2021/12/15 09:20:33;;;;;;;21.50;15.03;;;;;;;;;;4932858;29;20182;-77
2021/12/15 09:23:01;;;;;;;23.10;14.97;;;;;;;;;;4948606;28;20245;-76
2021/12/15 09:25:28;;;;;;;21.67;14.20;;;;;;;;;;4933740;29;20209;-77
2021/12/15 09:27:58;;;;;;;25.80;16.10;;;;;;;;;;4935610;29;20244;-76
2021/12/15 09:30:26;;;;;;;31.40;18.20;;;;;;;;;;4930670;29;20190;-77
2021/12/15 09:32:53;;;;;;;41.33;22.33;;;;;;;;;;4933060;29;20214;-77
2021/12/15 09:35:22;;;;;;;29.97;18.70;;;;;;;;;;4931292;29;20630;-77
2021/12/15 09:37:48;;;;;;;25.30;15.27;;;;;;;;;;4930981;29;20258;-76
2021/12/15 09:40:16;;;;;;;21.87;15.33;;;;;;;;;;4931150;29;20178;-77
2021/12/15 09:42:42;;;;;;;25.50;15.17;;;;;;;;;;4928907;29;20284;-77
2021/12/15 09:45:28;;;;;;;21.97;14.63;;;;;;;;;;4929752;29;20185;-76
2021/12/15 10:04:22;;;;;;;26.90;16.77;;;;;;;;;;4928050;29;20331;-78
2021/12/15 10:07:14;;;;;;;24.43;15.30;;;;;;;;;;4926214;29;20185;-78
2021/12/15 10:18:07;;;;;;;21.23;14.80;;;;;;;;;;4928643;29;20224;-78
2021/12/15 10:20:37;;;;;;;21.20;14.87;;;;;;;;;;4933605;29;20194;-77
2021/12/15 10:23:05;;;;;;;19.57;13.80;;;;;;;;;;4931554;29;20693;-77
2021/12/15 10:25:34;;;;;;;20.80;15.03;;;;;;;;;;4933199;29;20546;-81
2021/12/15 10:28:03;;;;;;;20.03;14.80;;;;;;;;;;4932731;29;20193;-77
2021/12/15 10:30:34;;;;;;;19.40;14.13;;;;;;;;;;4932779;29;20708;-78
2021/12/15 10:33:06;;;;;;;19.43;13.93;;;;;;;;;;4934710;29;20205;-79
2021/12/15 10:35:40;;;;;;;20.97;14.87;;;;;;;;;;4935320;29;20181;-79
2021/12/15 10:38:22;;;;;;;19.87;14.63;;;;;;;;;;4934355;29;20908;-79
2021/12/15 10:40:54;;;;;;;17.93;13.53;;;;;;;;;;4926967;29;20561;-79
2021/12/15 10:43:22;;;;;;;21.03;16.00;;;;;;;;;;4924348;29;20213;-79
2021/12/15 10:45:50;;;;;;;23.60;16.37;;;;;;;;;;4926266;29;20178;-79
2021/12/15 10:48:34;;;;;;;20.20;14.90;;;;;;;;;;4929789;29;20190;-79
2021/12/15 10:51:01;;;;;;;18.00;13.53;;;;;;;;;;4927600;29;20230;-78
2021/12/15 10:53:32;;;;;;;18.70;14.00;;;;;;;;;;4931640;29;20205;-80
2021/12/15 10:55:58;;;;;;;19.87;14.67;;;;;;;;;;4934115;29;20786;-78
2021/12/15 10:58:32;;;;;;;20.50;15.57;;;;;;;;;;4933261;29;20689;-78
2021/12/15 11:00:59;;;;;;;19.17;15.60;;;;;;;;;;4930512;29;20221;-79
2021/12/15 11:03:32;;;;;;;17.00;14.57;;;;;;;;;;4945128;29;20534;-78
2021/12/15 11:05:58;;;;;;;18.43;14.93;;;;;;;;;;4928361;29;20232;-79
2021/12/15 11:08:24;;;;;;;16.27;12.90;;;;;;;;;;4933042;29;20189;-79
2021/12/15 11:10:52;;;;;;;14.70;12.50;;;;;;;;;;4929475;29;20678;-79
2021/12/15 11:13:18;;;;;;;14.77;13.13;;;;;;;;;;4930660;29;20209;-78
2021/12/15 11:15:45;;;;;;;14.83;13.33;;;;;;;;;;4932832;29;20274;-78
2021/12/15 11:18:18;;;;;;;14.57;13.07;;;;;;;;;;4933715;29;20225;-78
2021/12/15 11:20:46;;;;;;;11.13;10.03;;;;;;;;;;4932698;29;20252;-78
2021/12/15 11:23:16;;;;;;;10.30;9.30;;;;;;;;;;4933604;29;20236;-78
2021/12/15 11:25:45;;;;;;;10.37;9.37;;;;;;;;;;4923148;29;20183;-78
2021/12/15 11:28:18;;;;;;;11.47;10.37;;;;;;;;;;4914890;29;20235;-77
2021/12/15 11:31:06;;;;;;;10.90;9.80;;;;;;;;;;4928266;29;20198;-77
2021/12/15 11:33:38;;;;;;;12.43;11.13;;;;;;;;;;4926491;29;20593;-77
2021/12/15 11:36:06;;;;;;;11.67;9.63;;;;;;;;;;4934499;29;20194;-76
2021/12/15 11:38:33;;;;;;;11.77;10.57;;;;;;;;;;4924424;29;20221;-77
2021/12/15 11:40:59;;;;;;;12.37;11.07;;;;;;;;;;4932889;29;20214;-83
2021/12/15 11:43:39;;;;;;;11.57;10.37;;;;;;;;;;4928839;29;20261;-81
2021/12/15 11:46:13;;;;;;;12.00;10.57;;;;;;;;;;4932867;29;20277;-80
2021/12/15 11:48:40;;;;;;;14.00;11.90;;;;;;;;;;4926726;29;20276;-78
2021/12/15 11:51:07;;;;;;;14.70;13.07;;;;;;;;;;4925522;29;20190;-79
2021/12/15 11:53:36;;;;;;;16.40;13.13;;;;;;;;;;4931568;29;20682;-79
2021/12/15 11:56:20;;;;;;;14.37;12.50;;;;;;;;;;4936837;29;20194;-79
2021/12/15 11:58:47;;;;;;;16.17;14.47;;;;;;;;;;4937231;29;20685;-79
2021/12/15 12:01:32;;;;;;;15.90;12.87;;;;;;;;;;4940260;29;20670;-78
2021/12/15 12:04:11;;;;;;;16.27;13.67;;;;;;;;;;4931651;29;20588;-82
2021/12/15 12:06:37;;;;;;;20.67;14.60;;;;;;;;;;4943623;29;20193;-78
2021/12/15 12:09:04;;;;;;;15.17;13.50;;;;;;;;;;4934584;29;20776;-78
2021/12/15 12:11:33;;;;;;;15.63;12.80;;;;;;;;;;4934107;29;20584;-76
2021/12/15 12:14:00;;;;;;;13.17;11.07;;;;;;;;;;4939401;29;20213;-79
2021/12/15 12:16:27;;;;;;;10.50;8.87;;;;;;;;;;4937610;29;20197;-79
2021/12/15 12:18:53;;;;;;;8.77;7.87;;;;;;;;;;4935231;29;20743;-78
2021/12/15 12:21:20;;;;;;;10.00;8.33;;;;;;;;;;4929644;29;20965;-77
2021/12/15 12:23:49;;;;;;;9.77;8.23;;;;;;;;;;4934656;29;20230;-77
2021/12/15 12:26:16;;;;;;;9.77;8.77;;;;;;;;;;4935735;29;20206;-77
2021/12/15 12:28:45;;;;;;;9.50;7.93;;;;;;;;;;4935157;29;20194;-79
2021/12/15 12:31:17;;;;;;;8.80;7.27;;;;;;;;;;4941721;29;20229;-85
2021/12/15 12:33:43;;;;;;;8.60;7.47;;;;;;;;;;4946182;29;20213;-80
2021/12/15 12:36:11;;;;;;;8.00;7.20;;;;;;;;;;4941131;29;20182;-82
2021/12/15 12:38:39;;;;;;;8.27;7.37;;;;;;;;;;4956554;28;20246;-83
2021/12/15 12:41:11;;;;;;;10.43;8.67;;;;;;;;;;4937848;29;20226;-83
2021/12/15 12:43:39;;;;;;;8.93;7.87;;;;;;;;;;4961442;29;20705;-83
2021/12/15 12:46:21;;;;;;;10.13;8.20;;;;;;;;;;4961922;29;20642;-83
2021/12/15 12:59:58;;;;;;;12.03;10.33;;;;;;;;;;4943597;29;20182;-84
2021/12/15 13:02:30;;;;;;;12.63;9.37;;;;;;;;;;4941221;29;20198;-84
2021/12/15 13:04:57;;;;;;;10.93;9.03;;;;;;;;;;4944172;29;20178;-85
2021/12/15 13:07:42;;;;;;;13.23;9.90;;;;;;;;;;4903934;29;20189;-79
2021/12/15 13:10:08;;;;;;;11.53;10.20;;;;;;;;;;4931208;29;20204;-79
2021/12/15 13:12:39;;;;;;;13.50;11.13;;;;;;;;;;4934617;29;20206;-79
2021/12/15 13:15:08;;;;;;;13.50;11.50;;;;;;;;;;4934643;29;20257;-79
2021/12/15 13:17:37;;;;;;;13.97;10.93;;;;;;;;;;4949751;29;20209;-79
2021/12/15 13:20:21;;;;;;;14.10;11.57;;;;;;;;;;4929155;29;20183;-78
2021/12/15 13:23:04;;;;;;;14.37;11.93;;;;;;;;;;4917832;29;20218;-79
2021/12/15 13:31:07;;;;;;;15.10;11.53;;;;;;;;;;4928811;29;20205;-79
2021/12/15 13:33:34;;;;;;;13.10;10.37;;;;;;;;;;4928161;29;20205;-78
2021/12/15 13:36:22;;;;;;;14.60;12.03;;;;;;;;;;4936095;29;20220;-79
2021/12/15 13:38:50;;;;;;;12.37;10.70;;;;;;;;;;4931655;29;20209;-80
2021/12/15 13:44:00;;;;;;;12.70;10.60;;;;;;;;;;4913137;29;20634;-79
2021/12/15 13:46:38;;;;;;;14.27;10.97;;;;;;;;;;4925571;29;20215;-79
2021/12/15 13:49:09;;;;;;;14.63;11.60;;;;;;;;;;4932096;29;20186;-78
2021/12/15 13:51:52;;;;;;;14.23;11.17;;;;;;;;;;4934250;29;20182;-80
2021/12/15 13:54:22;;;;;;;13.60;10.47;;;;;;;;;;4947846;29;20245;-79
2021/12/15 13:56:53;;;;;;;12.57;10.73;;;;;;;;;;4928612;29;20662;-78
2021/12/15 13:59:28;;;;;;;12.40;10.87;;;;;;;;;;4930172;29;20205;-79
2021/12/15 14:02:14;;;;;;;12.50;10.97;;;;;;;;;;4931266;29;20182;-79
2021/12/15 14:05:01;;;;;;;13.47;11.57;;;;;;;;;;4927998;29;20183;-79
2021/12/15 14:07:38;;;;;;;13.73;11.23;;;;;;;;;;4935361;29;20194;-79
2021/12/15 14:10:11;;;;;;;14.53;12.27;;;;;;;;;;4917006;29;20677;-78
2021/12/15 14:12:49;;;;;;;13.53;10.90;;;;;;;;;;4922039;29;20222;-79
2021/12/15 14:15:34;;;;;;;14.33;11.50;;;;;;;;;;4936329;29;20185;-79
2021/12/15 14:18:02;;;;;;;14.87;11.80;;;;;;;;;;4925200;29;20600;-79
2021/12/15 14:20:29;;;;;;;13.73;11.13;;;;;;;;;;4936471;29;20190;-79
2021/12/15 14:22:56;;;;;;;14.53;12.23;;;;;;;;;;4933514;29;20633;-79
2021/12/15 14:25:22;;;;;;;15.23;11.37;;;;;;;;;;4917214;29;20619;-79
2021/12/15 14:27:48;;;;;;;13.43;10.90;;;;;;;;;;4938225;29;20787;-79
2021/12/15 14:30:14;;;;;;;11.60;9.53;;;;;;;;;;4938290;29;20189;-79
2021/12/15 14:32:41;;;;;;;13.60;10.67;;;;;;;;;;4945637;28;20217;-80
2021/12/15 14:35:17;;;;;;;12.80;10.00;;;;;;;;;;4903887;29;20200;-79
2021/12/15 14:37:44;;;;;;;12.70;10.43;;;;;;;;;;4925761;29;20231;-79
2021/12/15 14:40:10;;;;;;;14.67;11.50;;;;;;;;;;4933859;29;20193;-79
2021/12/15 14:42:40;;;;;;;16.13;11.37;;;;;;;;;;4928375;29;20272;-79
2021/12/15 14:45:06;;;;;;;14.90;12.30;;;;;;;;;;4934276;29;20193;-79
2021/12/15 14:47:34;;;;;;;16.03;11.90;;;;;;;;;;4930982;29;20229;-79
2021/12/15 14:50:06;;;;;;;13.90;11.23;;;;;;;;;;4933626;29;20198;-79
2021/12/15 14:52:34;;;;;;;14.97;11.37;;;;;;;;;;4929220;29;20241;-79
2021/12/15 14:55:03;;;;;;;14.20;11.63;;;;;;;;;;4924227;29;20196;-79
2021/12/15 14:57:32;;;;;;;15.20;12.63;;;;;;;;;;4930637;29;20225;-80
2021/12/15 15:00:06;;;;;;;18.57;13.00;;;;;;;;;;4925395;29;20209;-79
2021/12/15 15:02:34;;;;;;;16.30;12.40;;;;;;;;;;4930838;29;20220;-79
2021/12/15 15:05:05;;;;;;;14.07;11.50;;;;;;;;;;4926770;29;20544;-79
2021/12/15 15:07:33;;;;;;;14.20;11.00;;;;;;;;;;4927161;29;20190;-79
2021/12/15 15:10:00;;;;;;;15.27;11.77;;;;;;;;;;4931727;29;20188;-81
2021/12/15 15:12:31;;;;;;;15.80;11.27;;;;;;;;;;4935902;29;20719;-80
2021/12/15 15:15:00;;;;;;;14.00;11.17;;;;;;;;;;4941623;29;20178;-81
2021/12/15 15:17:39;;;;;;;16.00;11.70;;;;;;;;;;4917691;29;20205;-80
2021/12/15 15:20:13;;;;;;;13.63;11.27;;;;;;;;;;4930099;29;20725;-80
2021/12/15 15:22:40;;;;;;;16.07;12.47;;;;;;;;;;4923867;29;20225;-79
2021/12/15 15:25:08;;;;;;;14.90;11.03;;;;;;;;;;4935363;29;20186;-80
2021/12/15 15:27:37;;;;;;;15.90;11.77;;;;;;;;;;4920762;29;20190;-80
2021/12/15 15:30:05;;;;;;;16.07;12.57;;;;;;;;;;4932297;29;20186;-80
2021/12/15 15:32:32;;;;;;;18.20;12.97;;;;;;;;;;4937719;29;20213;-80
2021/12/15 15:35:09;;;;;;;19.03;12.37;;;;;;;;;;4934014;28;20253;-80
2021/12/15 15:37:35;;;;;;;14.63;11.23;;;;;;;;;;4924271;29;20209;-79
2021/12/15 15:40:23;;;;;;;17.57;12.40;;;;;;;;;;4934632;29;20229;-80
2021/12/15 15:42:53;;;;;;;16.30;12.50;;;;;;;;;;4936730;29;20197;-79
2021/12/15 15:45:21;;;;;;;19.73;13.03;;;;;;;;;;4929980;29;20201;-79
2021/12/15 15:47:47;;;;;;;18.20;12.37;;;;;;;;;;4936855;29;20186;-80
2021/12/15 15:50:13;;;;;;;14.07;10.87;;;;;;;;;;4939571;29;20236;-80
2021/12/15 15:52:46;;;;;;;14.93;11.67;;;;;;;;;;4934059;29;20210;-79
2021/12/15 15:55:12;;;;;;;15.77;11.50;;;;;;;;;;4930350;29;20186;-80
2021/12/15 15:57:38;;;;;;;16.53;12.00;;;;;;;;;;4935951;29;20256;-81
2021/12/15 16:00:06;;;;;;;16.77;12.23;;;;;;;;;;4938353;29;20205;-79
2021/12/15 16:02:39;;;;;;;18.07;13.53;;;;;;;;;;4931176;29;20205;-80
2021/12/15 16:05:07;;;;;;;16.33;12.67;;;;;;;;;;4939167;29;20657;-80